sensor_id;sensor_type;location;lat;lon;timestamp;P1;durP1;ratioP1;P2;durP2;ratioP2
21645;SDS011;10984;45.712;4.800;2023-04-24T00:00:30;3.67;;;1.10;;
21645;SDS011;10984;45.712;4.800;2023-04-24T00:10:18;4.38;;;0.80;;
21645;SDS011;10984;45.712;4.800;2023-04-24T01:55:57;3.30;;;0.90;;
21645;SDS011;10984;45.712;4.800;2023-04-24T03:41:15;2.75;;;0.80;;
21645;SDS011;10984;45.712;4.800;2023-04-24T04:08:00;4.13;;;1.73;;
21645;SDS011;10984;45.712;4.800;2023-04-24T04:48:52;5.28;;;1.20;;
21645;SDS011;10984;45.712;4.800;2023-04-24T05:11:13;6.95;;;1.95;;
21645;SDS011;10984;45.712;4.800;2023-04-24T05:13:39;3.83;;;2.35;;
21645;SDS011;10984;45.712;4.800;2023-04-24T05:16:05;3.85;;;1.80;;
21645;SDS011;10984;45.712;4.800;2023-04-24T05:18:31;5.68;;;1.88;;
21645;SDS011;10984;45.712;4.800;2023-04-24T05:20:57;2.55;;;1.30;;
21645;SDS011;10984;45.712;4.800;2023-04-24T05:23:22;6.25;;;1.08;;
21645;SDS011;10984;45.712;4.800;2023-04-24T05:25:48;2.15;;;1.10;;
21645;SDS011;10984;45.712;4.800;2023-04-24T05:28:14;2.17;;;1.00;;
21645;SDS011;10984;45.712;4.800;2023-04-24T05:30:40;2.90;;;1.10;;
21645;SDS011;10984;45.712;4.800;2023-04-24T05:33:06;3.33;;;1.10;;
21645;SDS011;10984;45.712;4.800;2023-04-24T05:35:31;4.53;;;1.20;;
21645;SDS011;10984;45.712;4.800;2023-04-24T05:37:57;3.70;;;1.60;;
21645;SDS011;10984;45.712;4.800;2023-04-24T05:40:22;4.50;;;1.98;;
21645;SDS011;10984;45.712;4.800;2023-04-24T05:42:48;3.53;;;1.80;;
21645;SDS011;10984;45.712;4.800;2023-04-24T05:45:14;4.22;;;1.95;;
21645;SDS011;10984;45.712;4.800;2023-04-24T05:47:42;4.03;;;1.70;;
21645;SDS011;10984;45.712;4.800;2023-04-24T05:50:09;2.65;;;1.30;;
21645;SDS011;10984;45.712;4.800;2023-04-24T05:52:35;1.70;;;1.05;;
21645;SDS011;10984;45.712;4.800;2023-04-24T05:55:01;2.40;;;1.23;;
21645;SDS011;10984;45.712;4.800;2023-04-24T05:57:26;1.73;;;0.85;;
21645;SDS011;10984;45.712;4.800;2023-04-24T05:59:52;1.83;;;0.90;;
21645;SDS011;10984;45.712;4.800;2023-04-24T06:02:17;3.15;;;0.85;;
21645;SDS011;10984;45.712;4.800;2023-04-24T06:04:43;2.88;;;1.00;;
21645;SDS011;10984;45.712;4.800;2023-04-24T06:07:10;2.25;;;0.90;;
21645;SDS011;10984;45.712;4.800;2023-04-24T06:09:36;3.28;;;1.45;;
21645;SDS011;10984;45.712;4.800;2023-04-24T06:12:02;1.67;;;0.95;;
21645;SDS011;10984;45.712;4.800;2023-04-24T06:14:27;6.75;;;1.05;;
21645;SDS011;10984;45.712;4.800;2023-04-24T06:16:53;2.95;;;0.98;;
21645;SDS011;10984;45.712;4.800;2023-04-24T06:19:19;3.58;;;1.20;;
21645;SDS011;10984;45.712;4.800;2023-04-24T06:21:44;3.50;;;0.90;;
21645;SDS011;10984;45.712;4.800;2023-04-24T06:24:10;4.28;;;1.02;;
21645;SDS011;10984;45.712;4.800;2023-04-24T06:26:38;3.17;;;0.80;;
21645;SDS011;10984;45.712;4.800;2023-04-24T06:29:04;3.08;;;1.00;;
21645;SDS011;10984;45.712;4.800;2023-04-24T06:31:32;2.70;;;1.20;;
21645;SDS011;10984;45.712;4.800;2023-04-24T06:34:01;2.30;;;1.02;;
21645;SDS011;10984;45.712;4.800;2023-04-24T06:36:27;2.40;;;1.00;;
21645;SDS011;10984;45.712;4.800;2023-04-24T06:38:53;6.18;;;1.50;;
21645;SDS011;10984;45.712;4.800;2023-04-24T06:41:19;2.60;;;0.77;;
21645;SDS011;10984;45.712;4.800;2023-04-24T06:43:45;2.78;;;1.13;;
21645;SDS011;10984;45.712;4.800;2023-04-24T06:46:10;4.40;;;1.27;;
21645;SDS011;10984;45.712;4.800;2023-04-24T06:48:37;5.07;;;2.20;;
21645;SDS011;10984;45.712;4.800;2023-04-24T06:51:02;2.47;;;1.17;;
21645;SDS011;10984;45.712;4.800;2023-04-24T06:53:28;4.00;;;1.20;;
21645;SDS011;10984;45.712;4.800;2023-04-24T06:55:54;2.80;;;1.17;;
21645;SDS011;10984;45.712;4.800;2023-04-24T06:58:20;3.35;;;1.02;;
21645;SDS011;10984;45.712;4.800;2023-04-24T07:00:46;3.33;;;1.23;;
21645;SDS011;10984;45.712;4.800;2023-04-24T07:03:11;4.00;;;1.17;;
21645;SDS011;10984;45.712;4.800;2023-04-24T07:05:37;2.55;;;1.00;;
21645;SDS011;10984;45.712;4.800;2023-04-24T07:08:03;3.83;;;1.02;;
21645;SDS011;10984;45.712;4.800;2023-04-24T07:10:29;2.05;;;0.90;;
21645;SDS011;10984;45.712;4.800;2023-04-24T07:12:55;2.53;;;1.15;;
21645;SDS011;10984;45.712;4.800;2023-04-24T07:15:21;1.63;;;0.70;;
21645;SDS011;10984;45.712;4.800;2023-04-24T07:17:48;5.47;;;0.95;;
21645;SDS011;10984;45.712;4.800;2023-04-24T07:20:14;3.00;;;1.35;;
21645;SDS011;10984;45.712;4.800;2023-04-24T07:22:40;2.10;;;0.90;;
21645;SDS011;10984;45.712;4.800;2023-04-24T07:25:06;3.85;;;1.00;;
21645;SDS011;10984;45.712;4.800;2023-04-24T07:27:33;5.38;;;1.17;;
21645;SDS011;10984;45.712;4.800;2023-04-24T07:29:59;3.55;;;1.00;;
21645;SDS011;10984;45.712;4.800;2023-04-24T07:32:25;4.03;;;1.33;;
21645;SDS011;10984;45.712;4.800;2023-04-24T07:34:51;3.47;;;0.98;;
21645;SDS011;10984;45.712;4.800;2023-04-24T07:37:16;7.05;;;1.30;;
21645;SDS011;10984;45.712;4.800;2023-04-24T07:39:42;2.15;;;1.10;;
21645;SDS011;10984;45.712;4.800;2023-04-24T07:42:08;2.67;;;1.40;;
21645;SDS011;10984;45.712;4.800;2023-04-24T07:44:34;8.27;;;1.80;;
21645;SDS011;10984;45.712;4.800;2023-04-24T07:47:00;2.33;;;0.93;;
21645;SDS011;10984;45.712;4.800;2023-04-24T07:49:26;2.58;;;1.20;;
21645;SDS011;10984;45.712;4.800;2023-04-24T07:51:52;4.60;;;1.58;;
21645;SDS011;10984;45.712;4.800;2023-04-24T07:54:18;2.40;;;0.90;;
21645;SDS011;10984;45.712;4.800;2023-04-24T07:56:44;3.20;;;1.05;;
21645;SDS011;10984;45.712;4.800;2023-04-24T07:59:10;2.42;;;1.20;;
21645;SDS011;10984;45.712;4.800;2023-04-24T08:01:36;3.33;;;1.58;;
21645;SDS011;10984;45.712;4.800;2023-04-24T08:04:01;2.40;;;1.20;;
21645;SDS011;10984;45.712;4.800;2023-04-24T08:06:27;2.65;;;1.13;;
21645;SDS011;10984;45.712;4.800;2023-04-24T08:08:55;2.90;;;1.20;;
21645;SDS011;10984;45.712;4.800;2023-04-24T08:11:21;2.38;;;1.10;;
21645;SDS011;10984;45.712;4.800;2023-04-24T08:13:47;3.50;;;1.33;;
21645;SDS011;10984;45.712;4.800;2023-04-24T08:16:12;5.75;;;1.58;;
21645;SDS011;10984;45.712;4.800;2023-04-24T08:18:38;4.47;;;1.48;;
21645;SDS011;10984;45.712;4.800;2023-04-24T08:21:04;2.97;;;1.10;;
21645;SDS011;10984;45.712;4.800;2023-04-24T08:23:30;2.00;;;0.93;;
21645;SDS011;10984;45.712;4.800;2023-04-24T08:25:55;2.90;;;1.33;;
21645;SDS011;10984;45.712;4.800;2023-04-24T08:28:22;2.50;;;1.10;;
21645;SDS011;10984;45.712;4.800;2023-04-24T08:30:47;3.70;;;1.20;;
21645;SDS011;10984;45.712;4.800;2023-04-24T08:33:13;3.20;;;1.20;;
21645;SDS011;10984;45.712;4.800;2023-04-24T08:35:40;4.10;;;1.30;;
21645;SDS011;10984;45.712;4.800;2023-04-24T08:38:05;2.90;;;1.05;;
21645;SDS011;10984;45.712;4.800;2023-04-24T08:40:31;4.57;;;1.17;;
21645;SDS011;10984;45.712;4.800;2023-04-24T08:42:59;3.67;;;1.08;;
21645;SDS011;10984;45.712;4.800;2023-04-24T08:45:25;4.57;;;1.42;;
21645;SDS011;10984;45.712;4.800;2023-04-24T08:50:36;2.45;;;1.23;;
21645;SDS011;10984;45.712;4.800;2023-04-24T08:53:02;2.50;;;1.27;;
21645;SDS011;10984;45.712;4.800;2023-04-24T08:55:29;3.45;;;1.20;;
21645;SDS011;10984;45.712;4.800;2023-04-24T08:57:56;4.68;;;1.13;;
21645;SDS011;10984;45.712;4.800;2023-04-24T09:00:22;4.57;;;1.20;;
21645;SDS011;10984;45.712;4.800;2023-04-24T09:02:48;2.03;;;1.00;;
21645;SDS011;10984;45.712;4.800;2023-04-24T09:05:16;2.88;;;1.10;;
21645;SDS011;10984;45.712;4.800;2023-04-24T09:07:44;1.80;;;1.10;;
21645;SDS011;10984;45.712;4.800;2023-04-24T09:10:11;2.08;;;1.10;;
21645;SDS011;10984;45.712;4.800;2023-04-24T09:12:37;1.80;;;0.90;;
21645;SDS011;10984;45.712;4.800;2023-04-24T09:15:03;2.50;;;1.00;;
21645;SDS011;10984;45.712;4.800;2023-04-24T09:17:30;2.38;;;0.90;;
21645;SDS011;10984;45.712;4.800;2023-04-24T09:19:56;7.90;;;1.95;;
21645;SDS011;10984;45.712;4.800;2023-04-24T09:22:21;2.70;;;1.08;;
21645;SDS011;10984;45.712;4.800;2023-04-24T09:24:47;2.97;;;1.08;;
21645;SDS011;10984;45.712;4.800;2023-04-24T09:27:24;1.73;;;0.90;;
21645;SDS011;10984;45.712;4.800;2023-04-24T09:32:34;3.22;;;1.20;;
21645;SDS011;10984;45.712;4.800;2023-04-24T09:37:45;6.07;;;1.55;;
21645;SDS011;10984;45.712;4.800;2023-04-24T09:42:59;3.95;;;1.35;;
21645;SDS011;10984;45.712;4.800;2023-04-24T09:45:43;9.88;;;1.10;;
21645;SDS011;10984;45.712;4.800;2023-04-24T09:48:09;1.95;;;0.90;;
21645;SDS011;10984;45.712;4.800;2023-04-24T09:50:35;2.72;;;1.10;;
21645;SDS011;10984;45.712;4.800;2023-04-24T09:53:03;2.75;;;0.93;;
21645;SDS011;10984;45.712;4.800;2023-04-24T09:55:33;2.40;;;1.10;;
21645;SDS011;10984;45.712;4.800;2023-04-24T09:58:05;3.22;;;0.82;;
21645;SDS011;10984;45.712;4.800;2023-04-24T10:00:33;2.22;;;0.98;;
21645;SDS011;10984;45.712;4.800;2023-04-24T10:03:00;2.47;;;0.90;;
21645;SDS011;10984;45.712;4.800;2023-04-24T10:05:45;3.30;;;1.35;;
21645;SDS011;10984;45.712;4.800;2023-04-24T10:08:12;2.75;;;1.27;;
21645;SDS011;10984;45.712;4.800;2023-04-24T10:10:39;2.30;;;1.15;;
21645;SDS011;10984;45.712;4.800;2023-04-24T10:13:24;3.45;;;1.10;;
21645;SDS011;10984;45.712;4.800;2023-04-24T10:15:50;1.85;;;0.85;;
21645;SDS011;10984;45.712;4.800;2023-04-24T10:18:16;1.80;;;1.00;;
21645;SDS011;10984;45.712;4.800;2023-04-24T10:20:42;3.55;;;1.20;;
21645;SDS011;10984;45.712;4.800;2023-04-24T10:23:08;2.63;;;1.20;;
21645;SDS011;10984;45.712;4.800;2023-04-24T10:25:35;2.08;;;1.10;;
21645;SDS011;10984;45.712;4.800;2023-04-24T10:28:04;2.45;;;1.00;;
21645;SDS011;10984;45.712;4.800;2023-04-24T10:30:31;2.13;;;1.15;;
21645;SDS011;10984;45.712;4.800;2023-04-24T10:33:16;4.90;;;1.20;;
21645;SDS011;10984;45.712;4.800;2023-04-24T10:35:44;2.60;;;0.80;;
21645;SDS011;10984;45.712;4.800;2023-04-24T10:38:14;2.00;;;1.10;;
21645;SDS011;10984;45.712;4.800;2023-04-24T10:40:43;3.67;;;1.00;;
21645;SDS011;10984;45.712;4.800;2023-04-24T10:43:09;2.83;;;1.30;;
21645;SDS011;10984;45.712;4.800;2023-04-24T10:45:36;2.20;;;0.80;;
21645;SDS011;10984;45.712;4.800;2023-04-24T10:50:48;3.78;;;0.98;;
21645;SDS011;10984;45.712;4.800;2023-04-24T10:53:17;3.03;;;1.17;;
21645;SDS011;10984;45.712;4.800;2023-04-24T10:56:05;4.75;;;1.20;;
21645;SDS011;10984;45.712;4.800;2023-04-24T10:58:50;2.78;;;0.90;;
21645;SDS011;10984;45.712;4.800;2023-04-24T11:04:03;3.42;;;0.80;;
21645;SDS011;10984;45.712;4.800;2023-04-24T11:09:14;1.73;;;0.88;;
21645;SDS011;10984;45.712;4.800;2023-04-24T11:20:17;2.58;;;0.90;;
21645;SDS011;10984;45.712;4.800;2023-04-24T11:22:43;3.22;;;0.77;;
21645;SDS011;10984;45.712;4.800;2023-04-24T11:25:09;2.60;;;0.95;;
21645;SDS011;10984;45.712;4.800;2023-04-24T11:30:40;5.10;;;1.10;;
21645;SDS011;10984;45.712;4.800;2023-04-24T11:33:06;2.15;;;0.70;;
21645;SDS011;10984;45.712;4.800;2023-04-24T11:38:16;2.20;;;1.15;;
21645;SDS011;10984;45.712;4.800;2023-04-24T11:40:42;3.85;;;1.58;;
21645;SDS011;10984;45.712;4.800;2023-04-24T11:43:08;2.08;;;1.10;;
21645;SDS011;10984;45.712;4.800;2023-04-24T11:45:34;3.75;;;0.88;;
21645;SDS011;10984;45.712;4.800;2023-04-24T11:48:00;3.50;;;1.00;;
21645;SDS011;10984;45.712;4.800;2023-04-24T11:50:27;2.97;;;1.10;;
21645;SDS011;10984;45.712;4.800;2023-04-24T11:52:54;2.08;;;0.80;;
21645;SDS011;10984;45.712;4.800;2023-04-24T11:57:47;2.35;;;0.77;;
21645;SDS011;10984;45.712;4.800;2023-04-24T12:05:43;2.42;;;1.10;;
21645;SDS011;10984;45.712;4.800;2023-04-24T12:08:09;2.92;;;1.10;;
21645;SDS011;10984;45.712;4.800;2023-04-24T12:10:35;3.20;;;1.17;;
21645;SDS011;10984;45.712;4.800;2023-04-24T12:13:01;2.42;;;1.00;;
21645;SDS011;10984;45.712;4.800;2023-04-24T12:15:27;2.88;;;1.20;;
21645;SDS011;10984;45.712;4.800;2023-04-24T12:17:54;2.63;;;0.90;;
21645;SDS011;10984;45.712;4.800;2023-04-24T12:23:05;2.42;;;0.82;;
21645;SDS011;10984;45.712;4.800;2023-04-24T12:25:31;1.67;;;0.88;;
21645;SDS011;10984;45.712;4.800;2023-04-24T12:30:42;2.00;;;0.90;;
21645;SDS011;10984;45.712;4.800;2023-04-24T12:33:10;2.22;;;0.80;;
21645;SDS011;10984;45.712;4.800;2023-04-24T12:35:35;1.90;;;0.88;;
21645;SDS011;10984;45.712;4.800;2023-04-24T12:41:23;2.22;;;0.82;;
21645;SDS011;10984;45.712;4.800;2023-04-24T12:46:35;2.70;;;0.82;;
21645;SDS011;10984;45.712;4.800;2023-04-24T12:49:01;2.58;;;1.00;;
21645;SDS011;10984;45.712;4.800;2023-04-24T12:51:26;2.45;;;1.00;;
21645;SDS011;10984;45.712;4.800;2023-04-24T12:53:52;2.40;;;1.15;;
21645;SDS011;10984;45.712;4.800;2023-04-24T12:56:18;2.08;;;0.90;;
21645;SDS011;10984;45.712;4.800;2023-04-24T12:58:43;1.88;;;0.80;;
21645;SDS011;10984;45.712;4.800;2023-04-24T13:01:09;5.65;;;1.00;;
21645;SDS011;10984;45.712;4.800;2023-04-24T13:03:35;2.97;;;1.33;;
21645;SDS011;10984;45.712;4.800;2023-04-24T13:06:00;2.35;;;1.10;;
21645;SDS011;10984;45.712;4.800;2023-04-24T13:08:26;3.70;;;0.90;;
21645;SDS011;10984;45.712;4.800;2023-04-24T13:10:52;1.95;;;1.00;;
21645;SDS011;10984;45.712;4.800;2023-04-24T13:13:18;2.63;;;1.00;;
21645;SDS011;10984;45.712;4.800;2023-04-24T13:15:44;4.18;;;0.93;;
21645;SDS011;10984;45.712;4.800;2023-04-24T13:18:10;2.58;;;1.00;;
21645;SDS011;10984;45.712;4.800;2023-04-24T13:20:35;3.10;;;1.05;;
21645;SDS011;10984;45.712;4.800;2023-04-24T13:23:01;2.40;;;1.08;;
21645;SDS011;10984;45.712;4.800;2023-04-24T13:25:26;3.00;;;0.80;;
21645;SDS011;10984;45.712;4.800;2023-04-24T13:27:53;2.42;;;1.10;;
21645;SDS011;10984;45.712;4.800;2023-04-24T13:30:18;2.53;;;1.20;;
21645;SDS011;10984;45.712;4.800;2023-04-24T13:32:44;2.95;;;0.93;;
21645;SDS011;10984;45.712;4.800;2023-04-24T13:35:10;2.50;;;1.20;;
21645;SDS011;10984;45.712;4.800;2023-04-24T13:37:35;3.95;;;1.65;;
21645;SDS011;10984;45.712;4.800;2023-04-24T13:40:01;2.05;;;1.10;;
21645;SDS011;10984;45.712;4.800;2023-04-24T13:42:27;2.88;;;1.10;;
21645;SDS011;10984;45.712;4.800;2023-04-24T13:44:52;3.72;;;1.17;;
21645;SDS011;10984;45.712;4.800;2023-04-24T13:47:19;4.32;;;0.90;;
21645;SDS011;10984;45.712;4.800;2023-04-24T13:49:44;3.63;;;1.23;;
21645;SDS011;10984;45.712;4.800;2023-04-24T13:52:10;2.13;;;1.08;;
21645;SDS011;10984;45.712;4.800;2023-04-24T13:54:36;1.95;;;0.95;;
21645;SDS011;10984;45.712;4.800;2023-04-24T13:57:01;2.05;;;0.88;;
21645;SDS011;10984;45.712;4.800;2023-04-24T13:59:28;4.45;;;1.00;;
21645;SDS011;10984;45.712;4.800;2023-04-24T14:01:53;2.70;;;1.20;;
21645;SDS011;10984;45.712;4.800;2023-04-24T14:04:19;3.00;;;1.20;;
21645;SDS011;10984;45.712;4.800;2023-04-24T14:06:45;2.75;;;1.08;;
21645;SDS011;10984;45.712;4.800;2023-04-24T14:09:10;2.30;;;1.20;;
21645;SDS011;10984;45.712;4.800;2023-04-24T14:11:37;3.15;;;1.38;;
21645;SDS011;10984;45.712;4.800;2023-04-24T14:14:03;3.00;;;1.10;;
21645;SDS011;10984;45.712;4.800;2023-04-24T14:16:29;6.75;;;1.42;;
21645;SDS011;10984;45.712;4.800;2023-04-24T14:18:55;2.88;;;1.23;;
21645;SDS011;10984;45.712;4.800;2023-04-24T14:21:21;2.65;;;0.90;;
21645;SDS011;10984;45.712;4.800;2023-04-24T14:23:46;3.63;;;1.00;;
21645;SDS011;10984;45.712;4.800;2023-04-24T14:26:12;4.35;;;1.10;;
21645;SDS011;10984;45.712;4.800;2023-04-24T14:28:37;5.35;;;1.20;;
21645;SDS011;10984;45.712;4.800;2023-04-24T14:31:03;2.63;;;1.20;;
21645;SDS011;10984;45.712;4.800;2023-04-24T14:33:29;2.97;;;1.10;;
21645;SDS011;10984;45.712;4.800;2023-04-24T14:35:55;2.55;;;1.00;;
21645;SDS011;10984;45.712;4.800;2023-04-24T14:38:21;4.00;;;1.15;;
21645;SDS011;10984;45.712;4.800;2023-04-24T14:40:47;2.50;;;1.00;;
21645;SDS011;10984;45.712;4.800;2023-04-24T14:43:12;2.78;;;1.23;;
21645;SDS011;10984;45.712;4.800;2023-04-24T14:45:38;4.85;;;2.05;;
21645;SDS011;10984;45.712;4.800;2023-04-24T14:48:06;2.60;;;1.15;;
21645;SDS011;10984;45.712;4.800;2023-04-24T14:50:33;2.25;;;1.10;;
21645;SDS011;10984;45.712;4.800;2023-04-24T14:52:58;2.65;;;1.33;;
21645;SDS011;10984;45.712;4.800;2023-04-24T14:55:24;3.17;;;1.75;;
21645;SDS011;10984;45.712;4.800;2023-04-24T14:57:51;2.60;;;1.20;;
21645;SDS011;10984;45.712;4.800;2023-04-24T15:00:17;2.90;;;1.23;;
21645;SDS011;10984;45.712;4.800;2023-04-24T15:02:43;3.38;;;1.70;;
21645;SDS011;10984;45.712;4.800;2023-04-24T15:05:09;2.90;;;1.00;;
21645;SDS011;10984;45.712;4.800;2023-04-24T15:07:36;2.95;;;1.60;;
21645;SDS011;10984;45.712;4.800;2023-04-24T15:10:02;7.50;;;2.22;;
21645;SDS011;10984;45.712;4.800;2023-04-24T15:12:28;3.40;;;1.42;;
21645;SDS011;10984;45.712;4.800;2023-04-24T15:14:54;4.15;;;1.50;;
21645;SDS011;10984;45.712;4.800;2023-04-24T15:17:20;3.55;;;1.52;;
21645;SDS011;10984;45.712;4.800;2023-04-24T15:19:46;4.10;;;1.10;;
21645;SDS011;10984;45.712;4.800;2023-04-24T15:22:11;2.22;;;1.20;;
21645;SDS011;10984;45.712;4.800;2023-04-24T15:24:37;2.40;;;1.00;;
21645;SDS011;10984;45.712;4.800;2023-04-24T15:27:03;2.80;;;1.23;;
21645;SDS011;10984;45.712;4.800;2023-04-24T15:29:28;4.65;;;1.52;;
21645;SDS011;10984;45.712;4.800;2023-04-24T15:31:54;2.50;;;1.27;;
21645;SDS011;10984;45.712;4.800;2023-04-24T15:34:20;3.50;;;1.58;;
21645;SDS011;10984;45.712;4.800;2023-04-24T15:36:46;3.83;;;1.55;;
21645;SDS011;10984;45.712;4.800;2023-04-24T15:39:11;4.70;;;1.63;;
21645;SDS011;10984;45.712;4.800;2023-04-24T15:41:37;4.45;;;1.30;;
21645;SDS011;10984;45.712;4.800;2023-04-24T15:44:03;3.42;;;1.38;;
21645;SDS011;10984;45.712;4.800;2023-04-24T15:46:28;2.55;;;1.05;;
21645;SDS011;10984;45.712;4.800;2023-04-24T15:48:54;6.45;;;1.48;;
21645;SDS011;10984;45.712;4.800;2023-04-24T15:51:20;4.90;;;1.30;;
21645;SDS011;10984;45.712;4.800;2023-04-24T15:53:45;3.58;;;1.30;;
21645;SDS011;10984;45.712;4.800;2023-04-24T15:56:11;2.85;;;1.45;;
21645;SDS011;10984;45.712;4.800;2023-04-24T15:58:37;5.15;;;1.30;;
21645;SDS011;10984;45.712;4.800;2023-04-24T16:01:03;3.78;;;1.42;;
21645;SDS011;10984;45.712;4.800;2023-04-24T16:03:29;7.70;;;1.42;;
21645;SDS011;10984;45.712;4.800;2023-04-24T16:05:55;3.67;;;1.25;;
21645;SDS011;10984;45.712;4.800;2023-04-24T16:08:20;2.17;;;1.00;;
21645;SDS011;10984;45.712;4.800;2023-04-24T16:10:46;5.53;;;1.30;;
21645;SDS011;10984;45.712;4.800;2023-04-24T16:13:12;3.30;;;1.20;;
21645;SDS011;10984;45.712;4.800;2023-04-24T16:15:38;4.45;;;1.77;;
21645;SDS011;10984;45.712;4.800;2023-04-24T16:18:05;3.00;;;1.65;;
21645;SDS011;10984;45.712;4.800;2023-04-24T16:20:31;3.33;;;1.55;;
21645;SDS011;10984;45.712;4.800;2023-04-24T16:22:57;6.32;;;2.28;;
21645;SDS011;10984;45.712;4.800;2023-04-24T16:25:22;3.85;;;1.58;;
21645;SDS011;10984;45.712;4.800;2023-04-24T16:27:48;3.80;;;1.50;;
21645;SDS011;10984;45.712;4.800;2023-04-24T16:30:15;3.30;;;1.38;;
21645;SDS011;10984;45.712;4.800;2023-04-24T16:32:40;4.20;;;1.42;;
21645;SDS011;10984;45.712;4.800;2023-04-24T16:35:06;3.03;;;1.00;;
21645;SDS011;10984;45.712;4.800;2023-04-24T16:37:32;3.25;;;1.35;;
21645;SDS011;10984;45.712;4.800;2023-04-24T16:39:58;4.90;;;1.30;;
21645;SDS011;10984;45.712;4.800;2023-04-24T16:42:23;4.57;;;1.50;;
21645;SDS011;10984;45.712;4.800;2023-04-24T16:44:49;3.65;;;1.58;;
21645;SDS011;10984;45.712;4.800;2023-04-24T16:47:15;4.32;;;1.70;;
21645;SDS011;10984;45.712;4.800;2023-04-24T16:49:41;3.17;;;1.20;;
21645;SDS011;10984;45.712;4.800;2023-04-24T16:52:07;6.47;;;1.20;;
21645;SDS011;10984;45.712;4.800;2023-04-24T16:54:34;8.65;;;1.80;;
21645;SDS011;10984;45.712;4.800;2023-04-24T16:57:00;4.07;;;1.25;;
21645;SDS011;10984;45.712;4.800;2023-04-24T16:59:27;3.72;;;1.20;;
21645;SDS011;10984;45.712;4.800;2023-04-24T17:01:55;4.25;;;1.38;;
21645;SDS011;10984;45.712;4.800;2023-04-24T17:04:20;3.95;;;1.30;;
21645;SDS011;10984;45.712;4.800;2023-04-24T17:06:46;4.25;;;1.17;;
21645;SDS011;10984;45.712;4.800;2023-04-24T17:09:12;9.93;;;1.75;;
21645;SDS011;10984;45.712;4.800;2023-04-24T17:11:39;2.67;;;1.27;;
21645;SDS011;10984;45.712;4.800;2023-04-24T17:14:05;4.15;;;1.63;;
21645;SDS011;10984;45.712;4.800;2023-04-24T17:16:31;2.38;;;1.30;;
21645;SDS011;10984;45.712;4.800;2023-04-24T17:18:56;2.58;;;1.35;;
21645;SDS011;10984;45.712;4.800;2023-04-24T17:21:22;3.15;;;1.30;;
21645;SDS011;10984;45.712;4.800;2023-04-24T17:23:48;2.33;;;1.40;;
21645;SDS011;10984;45.712;4.800;2023-04-24T17:26:13;3.20;;;1.42;;
21645;SDS011;10984;45.712;4.800;2023-04-24T17:28:40;4.00;;;1.80;;
21645;SDS011;10984;45.712;4.800;2023-04-24T17:31:05;3.47;;;1.50;;
21645;SDS011;10984;45.712;4.800;2023-04-24T17:33:31;5.38;;;1.45;;
21645;SDS011;10984;45.712;4.800;2023-04-24T17:35:57;4.00;;;1.65;;
21645;SDS011;10984;45.712;4.800;2023-04-24T17:38:25;4.53;;;1.63;;
21645;SDS011;10984;45.712;4.800;2023-04-24T17:40:52;12.27;;;6.50;;
21645;SDS011;10984;45.712;4.800;2023-04-24T17:43:18;10.18;;;3.58;;
21645;SDS011;10984;45.712;4.800;2023-04-24T17:45:48;6.40;;;3.10;;
21645;SDS011;10984;45.712;4.800;2023-04-24T17:48:19;5.40;;;1.75;;
21645;SDS011;10984;45.712;4.800;2023-04-24T17:50:46;3.03;;;1.48;;
21645;SDS011;10984;45.712;4.800;2023-04-24T17:53:12;5.45;;;1.60;;
21645;SDS011;10984;45.712;4.800;2023-04-24T17:55:38;3.97;;;1.65;;
21645;SDS011;10984;45.712;4.800;2023-04-24T17:58:04;6.55;;;1.55;;
21645;SDS011;10984;45.712;4.800;2023-04-24T18:00:31;2.90;;;1.30;;
21645;SDS011;10984;45.712;4.800;2023-04-24T18:02:57;4.22;;;1.65;;
21645;SDS011;10984;45.712;4.800;2023-04-24T18:08:09;2.80;;;1.20;;
21645;SDS011;10984;45.712;4.800;2023-04-24T18:10:34;3.47;;;1.50;;
21645;SDS011;10984;45.712;4.800;2023-04-24T18:13:00;3.55;;;1.80;;
21645;SDS011;10984;45.712;4.800;2023-04-24T18:15:27;3.85;;;1.63;;
21645;SDS011;10984;45.712;4.800;2023-04-24T18:17:52;2.97;;;1.40;;
21645;SDS011;10984;45.712;4.800;2023-04-24T18:20:18;4.88;;;1.35;;
21645;SDS011;10984;45.712;4.800;2023-04-24T18:22:44;6.20;;;1.80;;
21645;SDS011;10984;45.712;4.800;2023-04-24T18:25:11;2.42;;;1.13;;
21645;SDS011;10984;45.712;4.800;2023-04-24T18:27:37;4.30;;;1.27;;
21645;SDS011;10984;45.712;4.800;2023-04-24T18:30:04;2.67;;;1.30;;
21645;SDS011;10984;45.712;4.800;2023-04-24T18:32:31;5.47;;;1.50;;
21645;SDS011;10984;45.712;4.800;2023-04-24T18:34:56;3.70;;;1.92;;
21645;SDS011;10984;45.712;4.800;2023-04-24T18:37:22;3.35;;;1.38;;
21645;SDS011;10984;45.712;4.800;2023-04-24T18:39:48;3.95;;;1.48;;
21645;SDS011;10984;45.712;4.800;2023-04-24T18:42:15;2.80;;;1.42;;
21645;SDS011;10984;45.712;4.800;2023-04-24T18:44:41;6.35;;;1.80;;
21645;SDS011;10984;45.712;4.800;2023-04-24T18:47:07;6.20;;;1.63;;
21645;SDS011;10984;45.712;4.800;2023-04-24T18:49:34;4.35;;;2.10;;
21645;SDS011;10984;45.712;4.800;2023-04-24T18:51:59;9.98;;;1.88;;
21645;SDS011;10984;45.712;4.800;2023-04-24T18:54:25;11.73;;;5.28;;
21645;SDS011;10984;45.712;4.800;2023-04-24T18:56:51;7.28;;;3.38;;
21645;SDS011;10984;45.712;4.800;2023-04-24T18:59:17;9.10;;;3.72;;
21645;SDS011;10984;45.712;4.800;2023-04-24T19:01:43;9.95;;;5.13;;
21645;SDS011;10984;45.712;4.800;2023-04-24T19:04:09;8.30;;;3.10;;
21645;SDS011;10984;45.712;4.800;2023-04-24T19:06:35;7.43;;;3.10;;
21645;SDS011;10984;45.712;4.800;2023-04-24T19:09:01;7.93;;;2.92;;
21645;SDS011;10984;45.712;4.800;2023-04-24T19:11:27;4.07;;;1.80;;
21645;SDS011;10984;45.712;4.800;2023-04-24T19:13:53;5.28;;;2.28;;
21645;SDS011;10984;45.712;4.800;2023-04-24T19:16:18;7.70;;;2.75;;
21645;SDS011;10984;45.712;4.800;2023-04-24T19:18:44;6.13;;;2.35;;
21645;SDS011;10984;45.712;4.800;2023-04-24T19:21:10;5.88;;;1.70;;
21645;SDS011;10984;45.712;4.800;2023-04-24T19:23:35;7.20;;;2.35;;
21645;SDS011;10984;45.712;4.800;2023-04-24T19:26:04;4.15;;;1.42;;
21645;SDS011;10984;45.712;4.800;2023-04-24T19:28:30;6.13;;;2.30;;
21645;SDS011;10984;45.712;4.800;2023-04-24T19:30:56;7.25;;;2.35;;
21645;SDS011;10984;45.712;4.800;2023-04-24T19:36:07;5.13;;;1.80;;
21645;SDS011;10984;45.712;4.800;2023-04-24T19:38:33;6.75;;;2.15;;
21645;SDS011;10984;45.712;4.800;2023-04-24T19:40:58;6.93;;;2.53;;
21645;SDS011;10984;45.712;4.800;2023-04-24T19:43:24;3.78;;;1.70;;
21645;SDS011;10984;45.712;4.800;2023-04-24T19:45:50;5.90;;;1.70;;
21645;SDS011;10984;45.712;4.800;2023-04-24T19:48:15;6.38;;;2.17;;
21645;SDS011;10984;45.712;4.800;2023-04-24T19:50:41;2.45;;;1.20;;
21645;SDS011;10984;45.712;4.800;2023-04-24T19:53:07;4.53;;;1.90;;
21645;SDS011;10984;45.712;4.800;2023-04-24T19:55:33;4.05;;;2.00;;
21645;SDS011;10984;45.712;4.800;2023-04-24T19:57:58;4.68;;;2.00;;
21645;SDS011;10984;45.712;4.800;2023-04-24T20:00:24;4.20;;;1.92;;
21645;SDS011;10984;45.712;4.800;2023-04-24T20:02:50;4.93;;;2.35;;
21645;SDS011;10984;45.712;4.800;2023-04-24T20:05:16;5.90;;;2.67;;
21645;SDS011;10984;45.712;4.800;2023-04-24T20:07:41;6.30;;;2.10;;
21645;SDS011;10984;45.712;4.800;2023-04-24T20:10:08;4.63;;;2.10;;
21645;SDS011;10984;45.712;4.800;2023-04-24T20:12:34;4.30;;;2.03;;
21645;SDS011;10984;45.712;4.800;2023-04-24T20:15:01;6.15;;;2.67;;
21645;SDS011;10984;45.712;4.800;2023-04-24T20:17:28;4.72;;;2.00;;
21645;SDS011;10984;45.712;4.800;2023-04-24T20:19:53;9.43;;;2.50;;
21645;SDS011;10984;45.712;4.800;2023-04-24T20:22:19;4.15;;;1.75;;
21645;SDS011;10984;45.712;4.800;2023-04-24T20:24:45;3.38;;;1.88;;
21645;SDS011;10984;45.712;4.800;2023-04-24T20:27:11;9.07;;;3.85;;
21645;SDS011;10984;45.712;4.800;2023-04-24T20:29:37;6.72;;;3.13;;
21645;SDS011;10984;45.712;4.800;2023-04-24T20:32:03;5.60;;;2.92;;
21645;SDS011;10984;45.712;4.800;2023-04-24T20:34:28;5.70;;;2.13;;
21645;SDS011;10984;45.712;4.800;2023-04-24T20:36:54;4.60;;;2.20;;